createdAt,value
2023-04-27T00:01:20.029Z,0.30
2023-04-27T00:03:47.498Z,0.30
2023-04-27T00:06:14.796Z,0.40
2023-04-27T00:08:42.174Z,0.20
2023-04-27T00:11:08.983Z,0.20
2023-04-27T00:13:36.066Z,1.80
2023-04-27T00:16:03.984Z,0.50
2023-04-27T00:18:31.388Z,0.40
2023-04-27T00:20:58.751Z,0.20
2023-04-27T00:23:26.444Z,0.20
2023-04-27T00:25:53.277Z,0.50
2023-04-27T00:28:20.197Z,0.70
2023-04-27T00:30:47.477Z,0.60
2023-04-27T00:33:14.315Z,0.30
2023-04-27T00:35:41.126Z,0.20
2023-04-27T00:38:08.190Z,0.90
2023-04-27T00:40:35.230Z,0.60
2023-04-27T00:43:02.177Z,2.90
2023-04-27T00:45:29.031Z,1.40
2023-04-27T00:47:56.347Z,0.40
2023-04-27T00:50:28.804Z,1.40
2023-04-27T00:52:56.824Z,0.90
2023-04-27T00:55:24.533Z,0.90
2023-04-27T00:57:51.948Z,0.50
2023-04-27T01:00:19.107Z,1.10
2023-04-27T01:02:46.417Z,0.60
2023-04-27T01:05:13.813Z,0.50
2023-04-27T01:07:40.721Z,0.60
2023-04-27T01:10:08.422Z,0.60
2023-04-27T01:12:35.837Z,0.50
2023-04-27T01:15:06.456Z,1.30
2023-04-27T01:17:33.445Z,0.50
2023-04-27T01:20:00.652Z,0.80
2023-04-27T01:22:27.492Z,2.60
2023-04-27T01:24:54.503Z,1.30
2023-04-27T01:27:21.873Z,0.60
2023-04-27T01:29:48.906Z,0.70
2023-04-27T01:32:15.881Z,0.60
2023-04-27T01:34:43.020Z,0.60
2023-04-27T01:37:10.153Z,0.70
2023-04-27T01:39:37.539Z,0.60
2023-04-27T01:42:04.695Z,0.70
2023-04-27T01:44:31.858Z,0.70
2023-04-27T01:46:58.976Z,1.00
2023-04-27T01:49:26.122Z,1.40
2023-04-27T01:51:52.987Z,1.60
2023-04-27T01:54:19.910Z,2.10
2023-04-27T01:56:46.883Z,1.30
2023-04-27T01:59:14.133Z,0.90
2023-04-27T02:01:41.380Z,1.00
2023-04-27T02:04:08.493Z,0.60
2023-04-27T02:06:36.485Z,0.90
2023-04-27T02:09:03.762Z,0.60
2023-04-27T02:11:32.070Z,0.70
2023-04-27T02:13:59.014Z,0.60
2023-04-27T02:16:31.009Z,0.80
2023-04-27T02:18:59.208Z,0.50
2023-04-27T02:21:26.521Z,0.70
2023-04-27T02:23:53.351Z,0.60
2023-04-27T02:26:21.047Z,1.50
2023-04-27T02:28:48.160Z,0.40
2023-04-27T02:31:15.812Z,0.70
2023-04-27T02:33:42.757Z,0.80
2023-04-27T02:36:09.680Z,0.60
2023-04-27T02:38:36.622Z,1.40
2023-04-27T02:41:03.783Z,0.90
2023-04-27T02:43:30.724Z,1.80
2023-04-27T02:45:57.524Z,0.40
2023-04-27T02:48:24.523Z,0.50
2023-04-27T02:50:51.969Z,0.40
2023-04-27T02:53:18.826Z,0.60
2023-04-27T02:55:49.773Z,0.60
2023-04-27T02:58:17.343Z,0.90
2023-04-27T03:00:45.707Z,0.80
2023-04-27T03:03:13.438Z,0.80
2023-04-27T03:05:41.332Z,1.00
2023-04-27T03:08:08.167Z,0.40
2023-04-27T03:10:36.129Z,0.30
2023-04-27T03:13:03.198Z,0.60
2023-04-27T03:15:30.014Z,1.30
2023-04-27T03:17:56.917Z,1.10
2023-04-27T03:20:24.036Z,2.40
2023-04-27T03:22:53.890Z,0.70
2023-04-27T03:25:21.855Z,1.30
2023-04-27T03:27:48.773Z,1.30
2023-04-27T03:30:15.724Z,0.50
2023-04-27T03:32:43.221Z,0.70
2023-04-27T03:35:12.342Z,1.00
2023-04-27T03:37:39.311Z,2.90
2023-04-27T03:40:10.162Z,0.70
2023-04-27T03:42:37.103Z,0.70
2023-04-27T03:45:05.845Z,0.50
2023-04-27T03:47:32.910Z,0.40
2023-04-27T03:50:00.093Z,0.80
2023-04-27T03:52:27.558Z,0.40
2023-04-27T03:54:54.931Z,1.10
2023-04-27T03:57:22.362Z,0.40
2023-04-27T03:59:50.066Z,0.70
2023-04-27T04:02:17.480Z,0.50
2023-04-27T04:04:44.772Z,0.80
2023-04-27T04:07:12.110Z,1.20
2023-04-27T04:09:39.240Z,1.30
2023-04-27T04:12:07.184Z,1.10
2023-04-27T04:14:34.164Z,0.60
2023-04-27T04:17:01.827Z,0.60
2023-04-27T04:20:48.953Z,0.70
2023-04-27T04:23:16.021Z,0.50
2023-04-27T04:25:43.563Z,0.90
2023-04-27T04:28:10.364Z,2.80
2023-04-27T04:30:37.223Z,2.30
2023-04-27T04:33:04.208Z,1.40
2023-04-27T04:35:33.134Z,0.80
2023-04-27T04:38:00.342Z,0.60
2023-04-27T04:40:27.862Z,1.20
2023-04-27T04:42:54.966Z,0.60
2023-04-27T04:45:21.999Z,0.90
2023-04-27T04:47:54.609Z,0.70
2023-04-27T04:50:22.347Z,2.30
2023-04-27T04:52:51.218Z,2.40
2023-04-27T04:55:18.521Z,1.20
2023-04-27T04:57:45.543Z,2.20
2023-04-27T05:00:13.966Z,0.60
2023-04-27T05:02:41.606Z,0.50
2023-04-27T05:05:09.653Z,1.40
2023-04-27T05:07:36.631Z,1.40
2023-04-27T05:10:03.868Z,1.30
2023-04-27T05:12:31.317Z,0.90
2023-04-27T05:14:58.262Z,2.90
2023-04-27T05:17:25.441Z,0.50
2023-04-27T05:19:52.389Z,0.90
2023-04-27T05:22:19.221Z,1.20
2023-04-27T05:24:46.461Z,0.70
2023-04-27T05:27:14.902Z,2.10
2023-04-27T05:29:42.410Z,1.10
2023-04-27T05:32:09.990Z,1.20
2023-04-27T05:34:37.135Z,1.10
2023-04-27T05:37:04.067Z,1.30
2023-04-27T05:39:30.925Z,1.80
2023-04-27T05:41:57.857Z,4.00
2023-04-27T05:44:28.622Z,1.50
2023-04-27T05:46:58.400Z,1.00
2023-04-27T05:49:25.228Z,0.70
2023-04-27T05:51:52.307Z,1.60
2023-04-27T05:54:19.159Z,1.50
2023-04-27T05:56:46.085Z,1.20
2023-04-27T05:59:13.736Z,8.30
2023-04-27T06:01:40.909Z,8.30
2023-04-27T06:04:08.398Z,2.70
2023-04-27T06:06:35.511Z,1.20
2023-04-27T06:09:02.520Z,0.70
2023-04-27T06:11:29.509Z,0.90
2023-04-27T06:13:56.636Z,0.90
2023-04-27T06:16:23.878Z,1.20
2023-04-27T06:18:50.966Z,1.30
2023-04-27T06:21:18.068Z,0.60
2023-04-27T06:23:44.956Z,1.70
2023-04-27T06:26:11.804Z,0.90
2023-04-27T06:28:38.754Z,1.80
2023-04-27T06:31:06.585Z,1.90
2023-04-27T06:33:33.808Z,2.10
2023-04-27T06:36:02.366Z,1.50
2023-04-27T06:38:29.822Z,1.10
2023-04-27T06:40:57.085Z,1.20
2023-04-27T06:43:24.224Z,0.70
2023-04-27T06:45:51.366Z,1.00
2023-04-27T06:48:18.613Z,0.90
2023-04-27T06:50:45.778Z,1.10
2023-04-27T06:53:13.228Z,0.50
2023-04-27T06:55:42.438Z,0.90
2023-04-27T06:58:10.960Z,0.90
2023-04-27T07:00:37.865Z,1.00
2023-04-27T07:03:04.917Z,1.10
2023-04-27T07:05:31.960Z,1.90
2023-04-27T07:15:21.690Z,1.50
2023-04-27T07:17:48.736Z,1.20
2023-04-27T07:20:16.965Z,0.90
2023-04-27T07:22:43.891Z,1.90
2023-04-27T07:25:11.567Z,1.00
2023-04-27T07:27:38.632Z,0.60
2023-04-27T07:30:09.495Z,0.80
2023-04-27T07:32:37.429Z,2.20
2023-04-27T07:35:06.072Z,2.30
2023-04-27T07:37:33.013Z,1.30
2023-04-27T07:39:59.985Z,0.70
2023-04-27T07:42:26.909Z,0.80
2023-04-27T07:44:54.427Z,0.70
2023-04-27T07:47:22.095Z,0.80
2023-04-27T07:49:49.387Z,0.90
2023-04-27T07:52:16.597Z,1.20
2023-04-27T07:54:43.599Z,1.10
2023-04-27T07:57:11.844Z,0.80
2023-04-27T07:59:39.120Z,1.50
2023-04-27T08:02:18.584Z,0.90
2023-04-27T08:04:48.164Z,0.80
2023-04-27T08:07:17.457Z,1.30
2023-04-27T08:09:44.718Z,1.60
2023-04-27T08:12:12.074Z,1.20
2023-04-27T08:14:39.120Z,1.20
2023-04-27T08:17:06.530Z,1.40
2023-04-27T08:19:33.732Z,1.60
2023-04-27T08:22:01.039Z,1.40
2023-04-27T08:24:27.879Z,1.20
2023-04-27T08:26:54.682Z,1.50
2023-04-27T08:29:27.840Z,1.40
2023-04-27T08:31:58.381Z,2.10
2023-04-27T08:34:26.381Z,3.50
2023-04-27T08:36:54.236Z,1.20
2023-04-27T08:39:21.115Z,1.70
2023-04-27T08:41:48.034Z,1.60
2023-04-27T08:44:15.000Z,7.00
2023-04-27T08:46:41.964Z,1.20
2023-04-27T08:49:10.123Z,1.10
2023-04-27T08:51:37.078Z,3.00
2023-04-27T08:54:04.208Z,1.50
2023-04-27T08:56:31.302Z,1.10
2023-04-27T08:58:59.052Z,2.00
2023-04-27T09:01:27.735Z,1.30
2023-04-27T09:03:59.218Z,1.90
2023-04-27T09:06:36.445Z,1.40
2023-04-27T09:09:03.958Z,1.30
2023-04-27T09:11:32.710Z,1.50
2023-04-27T09:14:00.664Z,1.30
2023-04-27T09:16:30.406Z,1.80
2023-04-27T09:18:59.477Z,2.40
2023-04-27T09:21:29.641Z,2.30
2023-04-27T09:23:56.891Z,1.90
2023-04-27T09:26:25.323Z,2.70
2023-04-27T09:28:53.572Z,1.70
2023-04-27T09:31:20.930Z,3.20
2023-04-27T09:33:55.023Z,2.30
2023-04-27T09:36:22.056Z,2.00
2023-04-27T09:38:49.793Z,2.70
2023-04-27T09:41:16.734Z,3.90
2023-04-27T09:43:45.962Z,2.20
2023-04-27T09:46:13.904Z,2.90
2023-04-27T09:48:41.269Z,2.60
2023-04-27T09:51:08.828Z,2.70
2023-04-27T09:53:40.789Z,2.00
2023-04-27T09:56:16.731Z,3.10
2023-04-27T09:59:02.126Z,2.60
2023-04-27T10:01:46.457Z,3.70
2023-04-27T10:04:53.520Z,5.20
2023-04-27T10:07:20.515Z,2.10
2023-04-27T10:09:49.420Z,2.80
2023-04-27T10:12:21.408Z,2.40
2023-04-27T10:14:58.550Z,3.10
2023-04-27T10:17:30.091Z,2.70
2023-04-27T10:20:05.458Z,3.80
2023-04-27T10:22:45.608Z,3.00
2023-04-27T10:25:21.795Z,2.30
2023-04-27T10:28:02.075Z,3.40
2023-04-27T10:30:37.140Z,5.40
2023-04-27T10:33:11.164Z,1.90
2023-04-27T10:35:42.455Z,1.60
2023-04-27T10:38:16.815Z,3.20
2023-04-27T10:40:57.514Z,3.00
2023-04-27T10:43:29.079Z,3.20
2023-04-27T10:45:56.009Z,2.90
2023-04-27T10:48:23.098Z,3.60
2023-04-27T10:50:51.927Z,3.50
2023-04-27T10:53:18.925Z,1.40
2023-04-27T10:55:45.878Z,1.60
2023-04-27T10:58:12.851Z,3.10
2023-04-27T11:00:45.013Z,1.50
2023-04-27T11:03:22.118Z,2.10
2023-04-27T11:05:50.254Z,2.20
2023-04-27T11:08:18.854Z,2.60
2023-04-27T11:10:50.556Z,1.70
2023-04-27T11:13:19.479Z,5.80
2023-04-27T11:15:47.583Z,1.60
2023-04-27T11:18:15.961Z,1.70
2023-04-27T11:20:44.578Z,5.20
2023-04-27T11:23:11.677Z,1.60
2023-04-27T11:25:39.019Z,3.20
2023-04-27T11:28:06.519Z,2.40
2023-04-27T11:30:33.735Z,5.70
2023-04-27T11:33:08.518Z,5.10
2023-04-27T11:35:35.820Z,2.50
2023-04-27T11:38:03.319Z,3.60
2023-04-27T11:40:31.243Z,1.40
2023-04-27T11:42:59.418Z,2.40
2023-04-27T11:45:28.456Z,2.50
2023-04-27T11:47:55.416Z,1.70
2023-04-27T11:50:24.359Z,2.30
2023-04-27T11:52:51.865Z,3.70
2023-04-27T11:55:21.389Z,1.50
2023-04-27T11:57:48.482Z,2.40
2023-04-27T12:00:16.792Z,6.90
2023-04-27T12:02:44.134Z,2.60
2023-04-27T12:05:13.534Z,3.60
2023-04-27T12:07:41.619Z,2.70
2023-04-27T12:10:09.423Z,3.60
2023-04-27T12:12:36.305Z,3.90
2023-04-27T12:15:03.489Z,3.80
2023-04-27T12:17:30.527Z,2.70
2023-04-27T12:19:57.543Z,3.90
2023-04-27T12:22:24.558Z,4.40
2023-04-27T12:24:51.439Z,7.10
2023-04-27T12:27:18.626Z,4.30
2023-04-27T12:29:45.645Z,3.00
2023-04-27T12:32:12.590Z,3.90
2023-04-27T12:34:39.759Z,4.90
2023-04-27T12:37:07.395Z,3.50
2023-04-27T12:39:34.448Z,2.60
2023-04-27T12:42:01.938Z,3.80
2023-04-27T12:44:29.059Z,3.30
2023-04-27T12:46:56.439Z,3.90
2023-04-27T12:49:24.191Z,2.30
2023-04-27T12:51:52.125Z,3.10
2023-04-27T12:54:19.013Z,3.50
2023-04-27T12:56:46.151Z,3.50
2023-04-27T12:59:13.305Z,2.20
2023-04-27T13:01:40.161Z,3.20
2023-04-27T13:04:07.278Z,3.20
2023-04-27T13:06:34.564Z,2.50
2023-04-27T13:09:01.696Z,3.30
2023-04-27T13:11:28.665Z,3.60
2023-04-27T13:13:55.484Z,3.20
2023-04-27T13:16:25.399Z,2.50
2023-04-27T13:18:53.796Z,3.10
2023-04-27T13:21:20.959Z,2.00
2023-04-27T13:23:48.203Z,5.30
2023-04-27T13:26:16.002Z,4.00
2023-04-27T13:28:42.917Z,3.00
2023-04-27T13:31:09.868Z,4.80
2023-04-27T13:33:41.595Z,7.90
2023-04-27T13:36:12.235Z,8.10
2023-04-27T13:38:39.478Z,5.90
2023-04-27T13:41:06.866Z,4.90
2023-04-27T13:43:33.913Z,4.80
2023-04-27T13:46:03.939Z,5.60
2023-04-27T13:48:31.212Z,3.40
2023-04-27T13:50:58.367Z,4.50
2023-04-27T13:53:26.162Z,5.10
2023-04-27T13:55:57.004Z,5.00
2023-04-27T13:58:25.807Z,4.00
2023-04-27T14:00:53.916Z,3.70
2023-04-27T14:03:21.818Z,6.40
2023-04-27T14:05:51.164Z,2.80
2023-04-27T14:08:18.326Z,3.40
2023-04-27T14:10:45.780Z,3.60
2023-04-27T14:13:12.937Z,3.80
2023-04-27T14:15:40.093Z,4.10
2023-04-27T14:18:08.147Z,4.30
2023-04-27T14:20:36.049Z,5.40
2023-04-27T14:23:04.199Z,4.50
2023-04-27T14:25:33.109Z,3.30
2023-04-27T14:28:04.615Z,3.60
2023-04-27T14:30:32.625Z,2.10
2023-04-27T14:32:59.742Z,5.30
2023-04-27T14:35:27.737Z,2.70
2023-04-27T14:37:57.146Z,6.00
2023-04-27T14:40:24.427Z,6.20
2023-04-27T14:42:51.586Z,4.80
2023-04-27T14:45:19.127Z,5.00
2023-04-27T14:47:46.172Z,2.70
2023-04-27T14:50:13.585Z,5.20
2023-04-27T14:52:40.583Z,5.30
2023-04-27T14:55:08.187Z,2.90
2023-04-27T14:57:36.922Z,4.90
2023-04-27T15:00:10.046Z,6.80
2023-04-27T15:02:37.969Z,3.20
2023-04-27T15:05:06.075Z,4.80
2023-04-27T15:07:33.309Z,7.90
2023-04-27T15:10:00.270Z,6.10
2023-04-27T15:12:27.428Z,3.90
2023-04-27T15:14:54.456Z,5.60
2023-04-27T15:17:21.396Z,2.40
2023-04-27T15:19:48.574Z,5.20
2023-04-27T15:22:15.520Z,4.50
2023-04-27T15:24:42.325Z,6.70
2023-04-27T15:27:10.028Z,7.00
2023-04-27T15:29:37.133Z,5.30
2023-04-27T15:32:04.454Z,2.80
2023-04-27T15:34:31.451Z,4.60
2023-04-27T15:36:58.435Z,7.50
2023-04-27T15:39:25.475Z,5.70
2023-04-27T15:41:52.703Z,9.90
2023-04-27T15:44:19.672Z,8.40
2023-04-27T15:46:46.637Z,7.90
2023-04-27T15:49:13.890Z,6.70
2023-04-27T15:51:41.105Z,4.90
2023-04-27T15:54:08.151Z,4.80
2023-04-27T15:56:35.046Z,5.30
2023-04-27T15:59:02.223Z,4.30
2023-04-27T16:01:29.111Z,4.80
2023-04-27T16:03:56.928Z,3.40
2023-04-27T16:06:34.897Z,7.60
2023-04-27T16:09:03.797Z,4.90
2023-04-27T16:11:31.716Z,5.50
2023-04-27T16:13:59.657Z,8.70
2023-04-27T16:16:27.279Z,4.60
2023-04-27T16:18:54.438Z,4.20
2023-04-27T16:21:21.520Z,7.10
2023-04-27T16:23:48.620Z,5.20
2023-04-27T16:26:15.761Z,6.20
2023-04-27T16:28:42.717Z,4.10
2023-04-27T16:31:10.108Z,6.20
2023-04-27T16:33:36.997Z,5.20
2023-04-27T16:38:50.873Z,6.30
2023-04-27T16:41:17.930Z,4.70
2023-04-27T16:43:44.888Z,8.20
2023-04-27T16:46:11.991Z,5.00
2023-04-27T16:48:39.072Z,6.30
2023-04-27T16:51:06.842Z,4.60
2023-04-27T16:53:33.685Z,4.60
2023-04-27T16:56:01.603Z,5.80
2023-04-27T16:58:29.634Z,4.20
2023-04-27T17:00:57.077Z,4.40
2023-04-27T17:03:24.116Z,7.90
2023-04-27T17:05:51.393Z,6.20
2023-04-27T17:08:18.289Z,5.80
2023-04-27T17:10:45.683Z,5.20
2023-04-27T17:13:14.920Z,3.70
2023-04-27T17:15:41.866Z,5.30
2023-04-27T17:18:09.871Z,4.90
2023-04-27T17:20:38.851Z,8.70
2023-04-27T17:23:07.311Z,8.00
2023-04-27T17:25:34.330Z,4.80
2023-04-27T17:28:01.739Z,9.20
2023-04-27T17:30:28.974Z,7.00
2023-04-27T17:32:56.065Z,8.00
2023-04-27T17:35:23.101Z,5.60
2023-04-27T17:37:50.086Z,6.80
2023-04-27T17:40:21.073Z,7.70
2023-04-27T17:42:48.493Z,8.10
2023-04-27T17:45:16.680Z,6.00
2023-04-27T17:47:43.714Z,7.90
2023-04-27T17:50:11.271Z,8.30
2023-04-27T17:52:38.947Z,7.30
2023-04-27T17:55:06.753Z,7.40
2023-04-27T17:57:33.969Z,6.70
2023-04-27T18:00:01.179Z,10.30
2023-04-27T18:02:28.367Z,4.50
2023-04-27T18:04:56.027Z,7.10
2023-04-27T18:07:23.707Z,5.40
2023-04-27T18:09:50.847Z,5.10
2023-04-27T18:12:17.700Z,9.00
2023-04-27T18:14:44.626Z,6.40
2023-04-27T18:17:11.690Z,6.90
2023-04-27T18:19:38.957Z,5.80
2023-04-27T18:22:06.089Z,4.00
2023-04-27T18:24:33.096Z,13.80
2023-04-27T18:27:00.236Z,12.40
2023-04-27T18:29:27.376Z,4.60
2023-04-27T18:31:54.271Z,5.30
2023-04-27T18:34:21.248Z,5.40
2023-04-27T18:36:52.058Z,9.60
2023-04-27T18:39:19.622Z,6.00
2023-04-27T18:41:46.596Z,6.70
2023-04-27T18:44:14.181Z,8.70
2023-04-27T18:46:41.505Z,7.00
2023-04-27T18:49:08.476Z,7.50
2023-04-27T18:51:35.888Z,8.20
2023-04-27T18:54:03.054Z,9.00
2023-04-27T18:56:31.136Z,5.90
2023-04-27T18:58:58.170Z,9.20
2023-04-27T19:01:26.210Z,9.50
2023-04-27T19:03:53.713Z,8.00
2023-04-27T19:06:21.414Z,7.50
2023-04-27T19:08:48.620Z,6.50
2023-04-27T19:11:15.699Z,7.50
2023-04-27T19:13:43.984Z,6.90
2023-04-27T19:16:11.840Z,8.80
2023-04-27T19:18:40.620Z,5.80
2023-04-27T19:21:09.972Z,7.30
2023-04-27T19:23:37.411Z,6.70
2023-04-27T19:26:12.407Z,7.60
2023-04-27T19:28:40.572Z,8.00
2023-04-27T19:31:07.813Z,10.80
2023-04-27T19:33:34.815Z,9.00
2023-04-27T19:36:01.826Z,12.20
2023-04-27T19:38:28.649Z,9.40
2023-04-27T19:40:55.588Z,11.80
2023-04-27T19:43:22.456Z,8.30
2023-04-27T19:45:49.504Z,8.40
2023-04-27T19:48:16.812Z,17.30
2023-04-27T19:50:44.139Z,10.90
2023-04-27T19:53:11.408Z,6.30
2023-04-27T19:55:40.330Z,9.10
2023-04-27T19:58:07.146Z,7.30
2023-04-27T20:00:34.469Z,6.70
2023-04-27T20:03:01.734Z,11.60
2023-04-27T20:05:28.956Z,8.70
2023-04-27T20:07:56.325Z,8.80
2023-04-27T20:10:23.287Z,10.30
2023-04-27T20:12:56.804Z,10.00
2023-04-27T20:15:24.948Z,12.50
2023-04-27T20:17:53.011Z,9.10
2023-04-27T20:20:20.975Z,5.90
2023-04-27T20:22:48.043Z,10.60
2023-04-27T20:25:15.046Z,5.60
2023-04-27T20:27:42.141Z,5.30
2023-04-27T20:30:09.918Z,7.80
2023-04-27T20:32:39.572Z,8.90
2023-04-27T20:35:11.631Z,6.80
2023-04-27T20:37:40.114Z,7.50
2023-04-27T20:40:08.290Z,6.30
2023-04-27T20:42:36.179Z,6.30
2023-04-27T20:45:05.721Z,7.50
2023-04-27T20:47:32.678Z,8.20
2023-04-27T20:49:59.734Z,9.40
2023-04-27T20:52:30.575Z,5.20
2023-04-27T20:54:58.972Z,6.50
2023-04-27T20:57:25.879Z,8.70
2023-04-27T20:59:52.824Z,7.70
2023-04-27T21:02:20.312Z,10.70
2023-04-27T21:04:47.784Z,9.70
2023-04-27T21:07:14.691Z,5.40
2023-04-27T21:09:41.944Z,7.10
2023-04-27T21:12:09.232Z,7.80
2023-04-27T21:14:36.572Z,4.90
2023-04-27T21:17:03.794Z,5.40
2023-04-27T21:19:30.863Z,10.70
2023-04-27T21:21:57.696Z,5.90
2023-04-27T21:24:25.071Z,4.80
2023-04-27T21:26:52.308Z,7.00
2023-04-27T21:29:19.353Z,7.20
2023-04-27T21:31:46.415Z,8.30
2023-04-27T21:34:13.513Z,7.00
2023-04-27T21:36:40.728Z,9.50
2023-04-27T21:39:07.867Z,6.40
2023-04-27T21:41:35.228Z,4.60
2023-04-27T21:44:02.301Z,6.90
2023-04-27T21:46:29.210Z,6.80
2023-04-27T21:48:56.026Z,5.70
2023-04-27T21:51:22.933Z,3.90
2023-04-27T21:53:49.729Z,4.90
2023-04-27T21:56:16.533Z,5.40
2023-04-27T21:58:43.534Z,5.30
2023-04-27T22:01:11.586Z,3.80
2023-04-27T22:03:39.154Z,7.20
2023-04-27T22:06:07.749Z,8.90
2023-04-27T22:08:35.380Z,4.50
2023-04-27T22:11:02.358Z,8.00
2023-04-27T22:13:29.298Z,7.00
2023-04-27T22:15:56.218Z,3.30
2023-04-27T22:18:23.204Z,3.90
2023-04-27T22:20:50.194Z,4.20
2023-04-27T22:23:17.092Z,4.70
2023-04-27T22:25:44.254Z,3.70
2023-04-27T22:28:11.106Z,5.40
2023-04-27T22:30:38.560Z,4.40
2023-04-27T22:33:05.414Z,3.20
2023-04-27T22:35:33.462Z,5.20
2023-04-27T22:38:00.656Z,3.60
2023-04-27T22:40:27.869Z,8.70
2023-04-27T22:42:55.271Z,4.60
2023-04-27T22:45:23.105Z,4.20
2023-04-27T22:47:50.319Z,4.80
2023-04-27T22:50:17.502Z,6.40
2023-04-27T22:52:44.384Z,8.50
2023-04-27T22:55:11.673Z,2.90
2023-04-27T22:57:39.091Z,4.20
2023-04-27T23:05:53.020Z,3.90
2023-04-27T23:08:24.238Z,5.70
2023-04-27T23:10:52.786Z,8.20
2023-04-27T23:13:27.089Z,3.80
2023-04-27T23:18:20.685Z,4.90
2023-04-27T23:20:52.944Z,6.30
2023-04-27T23:23:20.417Z,3.40
2023-04-27T23:25:47.480Z,3.30
2023-04-27T23:28:14.470Z,5.20
2023-04-27T23:30:41.209Z,3.60
2023-04-27T23:33:07.994Z,2.60
2023-04-27T23:35:35.046Z,6.20
2023-04-27T23:38:01.996Z,5.20
2023-04-27T23:40:29.016Z,4.30
2023-04-27T23:42:56.087Z,4.50
2023-04-27T23:45:23.067Z,6.10
2023-04-27T23:47:50.294Z,7.60
2023-04-27T23:50:17.239Z,3.40
2023-04-27T23:52:44.799Z,3.50
2023-04-27T23:55:11.735Z,2.20
2023-04-27T23:57:38.923Z,5.10
